createdAt,value
2019-02-10T00:01:17.758Z,99.90
2019-02-10T00:03:47.251Z,99.90
2019-02-10T00:06:24.337Z,99.90
2019-02-10T00:08:48.289Z,99.90
2019-02-10T00:11:17.709Z,99.90
2019-02-10T00:13:47.169Z,99.90
2019-02-10T00:16:21.338Z,99.90
2019-02-10T00:18:50.818Z,99.90
2019-02-10T00:21:20.334Z,99.90
2019-02-10T00:23:49.783Z,99.90
2019-02-10T00:26:19.209Z,99.90
2019-02-10T00:28:48.657Z,99.90
2019-02-10T00:31:18.069Z,99.90
2019-02-10T00:33:47.500Z,99.90
2019-02-10T00:36:17.022Z,99.90
2019-02-10T00:38:46.490Z,99.90
2019-02-10T00:41:15.937Z,99.90
2019-02-10T00:43:45.385Z,99.90
2019-02-10T00:46:14.823Z,99.90
2019-02-10T00:48:44.289Z,99.90
2019-02-10T00:51:13.758Z,99.90
2019-02-10T00:53:43.240Z,99.90
2019-02-10T00:56:12.685Z,99.90
2019-02-10T00:58:42.141Z,99.90
2019-02-10T01:01:11.629Z,99.90
2019-02-10T01:03:41.218Z,99.90
2019-02-10T01:06:10.682Z,99.90
2019-02-10T01:08:40.135Z,99.90
2019-02-10T01:11:09.589Z,99.90
2019-02-10T01:13:39.173Z,99.90
2019-02-10T01:16:08.745Z,99.90
2019-02-10T01:18:38.177Z,99.90
2019-02-10T01:21:08.170Z,99.90
2019-02-10T01:23:37.801Z,99.90
2019-02-10T01:26:07.349Z,99.90
2019-02-10T01:28:37.946Z,99.90
2019-02-10T01:31:07.411Z,99.90
2019-02-10T01:33:36.901Z,99.90
2019-02-10T01:36:06.773Z,99.90
2019-02-10T01:38:36.296Z,99.90
2019-02-10T01:41:05.794Z,99.90
2019-02-10T01:43:35.318Z,99.90
2019-02-10T01:46:04.801Z,99.90
2019-02-10T01:48:34.396Z,99.90
2019-02-10T01:51:03.949Z,99.90
2019-02-10T01:53:33.419Z,99.90
2019-02-10T01:56:04.442Z,99.90
2019-02-10T01:58:33.867Z,99.90
2019-02-10T02:01:03.758Z,99.90
2019-02-10T02:03:33.221Z,99.90
2019-02-10T02:06:02.849Z,99.90
2019-02-10T02:08:32.307Z,99.90
2019-02-10T02:11:01.791Z,99.90
2019-02-10T02:13:31.337Z,99.90
2019-02-10T02:16:00.814Z,99.90
2019-02-10T02:18:30.228Z,99.90
2019-02-10T02:20:59.685Z,99.90
2019-02-10T02:23:29.114Z,99.90
2019-02-10T02:25:58.568Z,99.90
2019-02-10T02:28:28.074Z,99.90
2019-02-10T02:30:57.574Z,99.90
2019-02-10T02:33:27.031Z,99.90
2019-02-10T02:35:56.483Z,99.90
2019-02-10T02:38:25.932Z,99.90
2019-02-10T02:40:55.509Z,99.90
2019-02-10T02:43:24.936Z,99.90
2019-02-10T02:45:54.389Z,99.90
2019-02-10T02:48:23.841Z,99.90
2019-02-10T02:50:53.281Z,99.90
2019-02-10T02:53:22.701Z,99.90
2019-02-10T02:55:52.186Z,99.90
2019-02-10T02:58:21.613Z,99.90
2019-02-10T03:00:51.090Z,99.90
2019-02-10T03:03:20.532Z,99.90
2019-02-10T03:05:50.060Z,99.90
2019-02-10T03:08:19.529Z,99.90
2019-02-10T03:10:49.021Z,99.90
2019-02-10T03:13:18.458Z,99.90
2019-02-10T03:15:48.029Z,99.90
2019-02-10T03:18:17.475Z,99.90
2019-02-10T03:20:47.020Z,99.90
2019-02-10T03:23:16.551Z,99.90
2019-02-10T03:25:46.146Z,99.90
2019-02-10T03:28:15.616Z,99.90
2019-02-10T03:30:45.063Z,99.90
2019-02-10T03:33:14.560Z,99.90
2019-02-10T03:35:44.063Z,99.90
2019-02-10T03:38:13.586Z,99.90
2019-02-10T03:40:43.019Z,99.90
2019-02-10T03:43:12.468Z,99.90
2019-02-10T03:45:41.920Z,99.90
2019-02-10T03:48:12.508Z,99.90
2019-02-10T03:50:41.949Z,99.90
2019-02-10T03:53:11.597Z,99.90
2019-02-10T03:55:41.051Z,99.90
2019-02-10T03:58:10.543Z,99.90
2019-02-10T04:00:40.004Z,99.90
2019-02-10T04:03:09.552Z,99.90
2019-02-10T04:05:39.041Z,99.90
2019-02-10T04:08:08.467Z,99.90
2019-02-10T04:10:37.909Z,99.90
2019-02-10T04:13:07.456Z,99.90
2019-02-10T04:15:36.879Z,99.90
2019-02-10T04:18:06.373Z,99.90
2019-02-10T04:20:35.812Z,99.90
2019-02-10T04:23:09.432Z,99.90
2019-02-10T04:25:38.889Z,99.90
2019-02-10T04:28:08.366Z,99.90
2019-02-10T04:30:37.782Z,99.90
2019-02-10T04:33:07.232Z,99.90
2019-02-10T04:35:36.771Z,99.90
2019-02-10T04:38:06.194Z,99.90
2019-02-10T04:40:35.658Z,99.90
2019-02-10T04:43:05.225Z,99.90
2019-02-10T04:45:34.682Z,99.90
2019-02-10T04:48:04.163Z,99.90
2019-02-10T04:50:33.638Z,99.90
2019-02-10T04:53:03.084Z,99.90
2019-02-10T04:55:32.512Z,99.90
2019-02-10T04:58:02.034Z,99.90
2019-02-10T05:00:31.531Z,99.90
2019-02-10T05:03:02.462Z,99.90
2019-02-10T05:05:31.881Z,99.90
2019-02-10T05:08:01.350Z,99.90
2019-02-10T05:10:30.790Z,99.90
2019-02-10T05:13:01.621Z,99.90
2019-02-10T05:15:31.133Z,99.90
2019-02-10T05:18:00.625Z,99.90
2019-02-10T05:20:30.111Z,99.90
2019-02-10T05:22:59.610Z,99.90
2019-02-10T05:25:29.025Z,99.90
2019-02-10T05:27:58.463Z,99.90
2019-02-10T05:30:27.921Z,99.90
2019-02-10T05:32:57.362Z,99.90
2019-02-10T05:35:26.804Z,99.90
2019-02-10T05:38:03.968Z,99.90
2019-02-10T05:40:28.493Z,99.90
2019-02-10T05:42:57.971Z,99.90
2019-02-10T05:45:27.399Z,99.90
2019-02-10T05:47:57.098Z,99.90
2019-02-10T05:50:26.557Z,99.90
2019-02-10T05:52:56.086Z,99.90
2019-02-10T05:55:25.514Z,99.90
2019-02-10T05:57:54.954Z,99.90
2019-02-10T06:00:24.385Z,99.90
2019-02-10T06:02:53.880Z,99.90
2019-02-10T06:05:25.750Z,99.90
2019-02-10T06:07:55.231Z,99.90
2019-02-10T06:10:24.629Z,99.90
2019-02-10T06:12:54.115Z,99.90
2019-02-10T06:15:23.566Z,99.90
2019-02-10T06:17:53.043Z,99.90
2019-02-10T06:20:22.499Z,99.90
2019-02-10T06:22:51.976Z,99.90
2019-02-10T06:25:21.497Z,99.90
2019-02-10T06:27:50.888Z,99.90
2019-02-10T06:30:20.344Z,99.90
2019-02-10T06:32:49.806Z,99.90
2019-02-10T06:35:19.262Z,99.90
2019-02-10T06:37:48.756Z,99.90
2019-02-10T06:40:18.292Z,99.90
2019-02-10T06:42:47.716Z,99.90
2019-02-10T06:45:17.183Z,99.90
2019-02-10T06:47:46.613Z,99.90
2019-02-10T06:50:16.083Z,99.90
2019-02-10T06:52:45.555Z,99.90
2019-02-10T06:55:15.008Z,99.90
2019-02-10T06:57:44.432Z,99.90
2019-02-10T07:00:42.583Z,99.90
2019-02-10T07:03:37.063Z,99.90
2019-02-10T07:06:07.447Z,99.90
2019-02-10T07:08:36.907Z,99.90
2019-02-10T07:11:06.373Z,99.90
2019-02-10T07:13:38.284Z,99.90
2019-02-10T07:16:32.973Z,99.90
2019-02-10T07:19:38.254Z,99.90
2019-02-10T07:23:00.128Z,99.90
2019-02-10T07:25:50.677Z,99.90
2019-02-10T07:29:03.471Z,99.90
2019-02-10T07:31:41.300Z,99.30
2019-02-10T07:34:54.117Z,99.90
2019-02-10T07:37:43.915Z,99.90
2019-02-10T07:40:53.703Z,99.90
2019-02-10T07:43:45.751Z,99.90
2019-02-10T07:46:33.988Z,99.90
2019-02-10T07:49:40.406Z,99.90
2019-02-10T07:52:41.720Z,99.90
2019-02-10T07:55:29.068Z,99.90
2019-02-10T07:58:39.577Z,97.60
2019-02-10T08:01:19.429Z,99.90
2019-02-10T08:04:16.146Z,99.90
2019-02-10T08:07:09.219Z,99.90
2019-02-10T08:10:38.307Z,99.50
2019-02-10T08:13:46.942Z,99.90
2019-02-10T08:16:53.364Z,99.90
2019-02-10T08:19:43.956Z,99.90
2019-02-10T08:22:57.478Z,99.90
2019-02-10T08:25:36.444Z,99.90
2019-02-10T08:28:42.597Z,99.20
2019-02-10T08:31:34.996Z,98.50
2019-02-10T08:34:40.218Z,99.90
2019-02-10T08:37:37.743Z,99.40
2019-02-10T08:40:45.555Z,95.40
2019-02-10T08:43:56.124Z,94.10
2019-02-10T08:46:54.535Z,99.50
2019-02-10T08:50:04.919Z,94.00
2019-02-10T08:52:51.963Z,94.70
2019-02-10T08:55:21.418Z,96.70
2019-02-10T08:57:50.951Z,99.90
2019-02-10T09:00:20.411Z,95.10
2019-02-10T09:02:49.848Z,93.90
2019-02-10T09:05:19.273Z,97.70
2019-02-10T09:07:48.762Z,95.50
2019-02-10T09:10:18.182Z,97.20
2019-02-10T09:12:47.710Z,95.10
2019-02-10T09:15:17.122Z,93.70
2019-02-10T09:17:46.662Z,93.90
2019-02-10T09:20:16.113Z,93.80
2019-02-10T09:22:45.603Z,93.70
2019-02-10T09:25:15.102Z,94.50
2019-02-10T09:27:44.591Z,93.70
2019-02-10T09:30:14.324Z,92.70
2019-02-10T09:32:43.798Z,96.30
2019-02-10T09:35:13.267Z,91.30
2019-02-10T09:37:42.900Z,91.90
2019-02-10T09:40:12.770Z,97.00
2019-02-10T09:42:42.213Z,93.20
2019-02-10T09:45:13.022Z,92.10
2019-02-10T09:47:42.563Z,91.30
2019-02-10T09:50:14.854Z,91.20
2019-02-10T09:52:44.309Z,90.90
2019-02-10T09:55:13.752Z,91.50
2019-02-10T09:57:43.204Z,93.00
2019-02-10T10:00:14.237Z,91.70
2019-02-10T10:02:43.769Z,91.00
2019-02-10T10:05:13.524Z,85.40
2019-02-10T10:07:43.040Z,94.60
2019-02-10T10:10:13.100Z,87.50
2019-02-10T10:12:42.604Z,84.70
2019-02-10T10:15:13.973Z,84.10
2019-02-10T10:17:44.541Z,82.00
2019-02-10T10:20:15.853Z,85.20
2019-02-10T10:22:45.343Z,90.40
2019-02-10T10:25:14.901Z,95.30
2019-02-10T10:27:44.476Z,92.80
2019-02-10T10:30:16.127Z,94.10
2019-02-10T10:32:45.571Z,95.90
2019-02-10T10:35:14.993Z,95.60
2019-02-10T10:37:44.550Z,95.00
2019-02-10T10:40:14.243Z,95.00
2019-02-10T10:42:43.750Z,94.90
2019-02-10T10:45:14.745Z,94.00
2019-02-10T10:47:44.228Z,91.60
2019-02-10T10:50:14.206Z,90.90
2019-02-10T10:52:43.696Z,78.10
2019-02-10T10:55:13.226Z,93.90
2019-02-10T10:57:43.095Z,92.00
2019-02-10T11:00:13.233Z,93.70
2019-02-10T11:02:42.815Z,87.90
2019-02-10T11:05:12.416Z,92.40
2019-02-10T11:07:43.471Z,91.10
2019-02-10T11:10:13.307Z,86.70
2019-02-10T11:12:42.900Z,73.30
2019-02-10T11:15:13.022Z,91.80
2019-02-10T11:17:42.445Z,91.30
2019-02-10T11:20:13.936Z,99.90
2019-02-10T11:22:43.377Z,86.80
2019-02-10T11:25:12.885Z,93.60
2019-02-10T11:27:42.753Z,82.40
2019-02-10T11:30:12.290Z,93.80
2019-02-10T11:32:41.724Z,90.70
2019-02-10T11:35:13.465Z,99.90
2019-02-10T11:37:42.890Z,84.70
2019-02-10T11:40:12.407Z,76.50
2019-02-10T11:42:41.824Z,85.90
2019-02-10T11:45:11.459Z,78.50
2019-02-10T11:47:40.927Z,67.20
2019-02-10T11:50:10.654Z,69.10
2019-02-10T11:52:40.094Z,84.20
2019-02-10T11:55:09.717Z,81.40
2019-02-10T11:57:39.196Z,80.50
2019-02-10T12:00:09.989Z,74.50
2019-02-10T12:02:39.538Z,75.40
2019-02-10T12:05:10.035Z,78.10
2019-02-10T12:07:39.557Z,80.00
2019-02-10T12:10:09.346Z,81.70
2019-02-10T12:12:38.911Z,81.50
2019-02-10T12:15:09.333Z,78.00
2019-02-10T12:17:38.756Z,78.70
2019-02-10T12:20:09.336Z,69.30
2019-02-10T12:22:38.858Z,78.60
2019-02-10T12:25:08.700Z,75.10
2019-02-10T12:27:38.186Z,81.30
2019-02-10T12:30:09.904Z,82.90
2019-02-10T12:32:39.407Z,85.30
2019-02-10T12:35:09.560Z,73.50
2019-02-10T12:37:39.085Z,87.20
2019-02-10T12:40:08.687Z,62.60
2019-02-10T12:42:38.108Z,61.80
2019-02-10T12:45:08.159Z,86.90
2019-02-10T12:47:37.646Z,80.30
2019-02-10T12:50:08.509Z,83.50
2019-02-10T12:52:38.163Z,88.10
2019-02-10T12:55:07.871Z,74.10
2019-02-10T12:57:37.319Z,86.00
2019-02-10T13:00:09.007Z,84.50
2019-02-10T13:02:38.487Z,65.10
2019-02-10T13:05:08.021Z,86.80
2019-02-10T13:07:37.598Z,64.20
2019-02-10T13:10:08.498Z,87.70
2019-02-10T13:12:38.006Z,88.90
2019-02-10T13:15:08.202Z,88.00
2019-02-10T13:17:37.664Z,87.40
2019-02-10T13:20:08.484Z,58.00
2019-02-10T13:22:37.948Z,84.10
2019-02-10T13:25:07.808Z,71.90
2019-02-10T13:27:37.303Z,84.60
2019-02-10T13:30:07.643Z,51.90
2019-02-10T13:32:37.094Z,64.10
2019-02-10T13:35:06.786Z,73.40
2019-02-10T13:37:36.273Z,80.60
2019-02-10T13:40:16.245Z,84.70
2019-02-10T13:42:39.257Z,87.60
2019-02-10T13:45:09.076Z,71.00
2019-02-10T13:47:38.632Z,75.00
2019-02-10T13:50:10.225Z,88.60
2019-02-10T13:52:39.785Z,63.50
2019-02-10T13:55:10.383Z,87.70
2019-02-10T13:57:39.874Z,86.20
2019-02-10T14:00:13.044Z,71.90
2019-02-10T14:02:42.496Z,70.60
2019-02-10T14:05:11.989Z,80.50
2019-02-10T14:07:41.500Z,71.20
2019-02-10T14:10:11.824Z,78.50
2019-02-10T14:12:41.323Z,78.90
2019-02-10T14:15:12.198Z,66.50
2019-02-10T14:17:41.657Z,86.30
2019-02-10T14:20:13.122Z,75.00
2019-02-10T14:22:42.630Z,70.50
2019-02-10T14:25:12.050Z,84.10
2019-02-10T14:27:41.483Z,82.20
2019-02-10T14:30:12.664Z,80.50
2019-02-10T14:32:42.149Z,86.30
2019-02-10T14:35:11.582Z,88.40
2019-02-10T14:37:41.025Z,92.30
2019-02-10T14:40:35.189Z,92.90
2019-02-10T14:43:05.624Z,91.80
2019-02-10T14:45:35.068Z,92.70
2019-02-10T14:48:04.546Z,93.60
2019-02-10T14:50:34.001Z,94.00
2019-02-10T14:53:03.480Z,93.40
2019-02-10T14:55:32.942Z,91.20
2019-02-10T14:58:03.896Z,94.70
2019-02-10T15:00:33.345Z,92.90
2019-02-10T15:03:04.558Z,95.00
2019-02-10T15:05:33.987Z,95.20
2019-02-10T15:08:03.483Z,95.30
2019-02-10T15:10:32.987Z,93.80
2019-02-10T15:13:02.432Z,95.80
2019-02-10T15:15:31.864Z,95.20
2019-02-10T15:18:01.359Z,94.40
2019-02-10T15:20:30.772Z,96.10
2019-02-10T15:23:00.255Z,96.40
2019-02-10T15:25:29.707Z,96.60
2019-02-10T15:28:00.675Z,95.80
2019-02-10T15:30:30.132Z,96.60
2019-02-10T15:32:59.616Z,93.60
2019-02-10T15:35:29.048Z,96.70
2019-02-10T15:37:58.480Z,97.10
2019-02-10T15:40:28.064Z,96.90
2019-02-10T15:42:57.480Z,96.90
2019-02-10T15:45:26.924Z,96.80
2019-02-10T15:47:56.375Z,96.90
2019-02-10T15:50:26.877Z,96.90
2019-02-10T15:52:56.327Z,97.00
2019-02-10T15:55:25.787Z,96.30
2019-02-10T15:57:55.219Z,92.20
2019-02-10T16:00:25.833Z,96.20
2019-02-10T16:02:55.362Z,93.40
2019-02-10T16:05:24.944Z,93.40
2019-02-10T16:07:54.433Z,93.00
2019-02-10T16:10:23.900Z,90.80
2019-02-10T16:12:53.370Z,92.80
2019-02-10T16:15:22.846Z,92.10
2019-02-10T16:17:52.313Z,92.90
2019-02-10T16:20:21.819Z,93.20
2019-02-10T16:22:51.271Z,93.30
2019-02-10T16:25:20.729Z,84.50
2019-02-10T16:27:50.171Z,93.30
2019-02-10T16:30:19.644Z,92.20
2019-02-10T16:32:50.281Z,93.60
2019-02-10T16:35:19.918Z,93.80
2019-02-10T16:37:49.409Z,93.70
2019-02-10T16:40:19.836Z,93.50
2019-02-10T16:42:49.365Z,92.10
2019-02-10T16:45:18.857Z,93.70
2019-02-10T16:47:48.332Z,88.10
2019-02-10T16:50:17.812Z,88.20
2019-02-10T16:52:47.336Z,90.70
2019-02-10T16:55:16.975Z,88.80
2019-02-10T16:57:46.432Z,94.30
2019-02-10T17:00:15.942Z,93.80
2019-02-10T17:02:45.408Z,92.00
2019-02-10T17:05:14.894Z,93.20
2019-02-10T17:07:44.351Z,93.10
2019-02-10T17:10:14.242Z,93.10
2019-02-10T17:12:43.700Z,93.50
2019-02-10T17:15:13.198Z,93.80
2019-02-10T17:17:42.624Z,94.30
2019-02-10T17:20:12.582Z,94.30
2019-02-10T17:22:42.030Z,94.50
2019-02-10T17:25:13.355Z,94.10
2019-02-10T17:27:42.850Z,93.80
2019-02-10T17:30:13.563Z,94.10
2019-02-10T17:32:42.988Z,90.10
2019-02-10T17:35:12.702Z,94.30
2019-02-10T17:37:42.264Z,93.30
2019-02-10T17:40:15.470Z,93.70
2019-02-10T17:42:44.906Z,92.80
2019-02-10T17:45:14.456Z,92.30
2019-02-10T17:47:43.958Z,94.50
2019-02-10T17:50:13.538Z,93.00
2019-02-10T17:52:43.027Z,94.30
2019-02-10T17:55:12.476Z,94.10
2019-02-10T17:57:41.963Z,95.20
2019-02-10T18:00:12.473Z,96.00
2019-02-10T18:02:41.941Z,99.00
2019-02-10T18:05:11.525Z,99.90
2019-02-10T18:07:40.982Z,99.10
2019-02-10T18:10:11.380Z,99.80
2019-02-10T18:12:40.802Z,99.90
2019-02-10T18:15:41.229Z,99.90
2019-02-10T18:18:28.069Z,99.90
2019-02-10T18:21:10.025Z,99.80
2019-02-10T18:23:58.106Z,99.90
2019-02-10T18:26:58.905Z,99.00
2019-02-10T18:29:56.518Z,99.50
2019-02-10T18:32:33.915Z,99.50
2019-02-10T18:35:16.894Z,99.00
2019-02-10T18:38:11.662Z,99.30
2019-02-10T18:41:03.182Z,98.70
2019-02-10T18:43:54.640Z,99.00
2019-02-10T18:46:34.134Z,99.40
2019-02-10T18:49:25.863Z,99.20
2019-02-10T18:52:08.194Z,97.30
2019-02-10T18:54:47.131Z,99.10
2019-02-10T18:57:36.638Z,98.60
2019-02-10T19:00:27.094Z,98.60
2019-02-10T19:03:21.688Z,98.10
2019-02-10T19:06:22.239Z,97.20
2019-02-10T19:09:10.609Z,98.60
2019-02-10T19:11:59.826Z,98.00
2019-02-10T19:14:48.218Z,97.60
2019-02-10T19:17:36.608Z,98.30
2019-02-10T19:20:26.519Z,98.50
2019-02-10T19:23:02.168Z,98.50
2019-02-10T19:25:54.033Z,98.20
2019-02-10T19:28:48.571Z,98.50
2019-02-10T19:31:30.402Z,97.80
2019-02-10T19:34:30.994Z,99.80
2019-02-10T19:37:07.730Z,99.60
2019-02-10T19:39:47.678Z,99.10
2019-02-10T19:42:36.130Z,98.60
2019-02-10T19:45:23.682Z,98.70
2019-02-10T19:48:10.868Z,99.40
2019-02-10T19:50:58.082Z,98.30
2019-02-10T19:53:33.523Z,99.30
2019-02-10T19:56:25.048Z,98.90
2019-02-10T19:59:13.443Z,99.00
2019-02-10T20:02:05.819Z,98.50
2019-02-10T20:05:02.839Z,97.30
2019-02-10T20:07:57.142Z,97.40
2019-02-10T20:10:42.674Z,98.40
2019-02-10T20:13:20.638Z,99.10
2019-02-10T20:16:07.902Z,98.40
2019-02-10T20:18:56.410Z,97.90
2019-02-10T20:21:47.486Z,97.20
2019-02-10T20:24:28.971Z,98.50
2019-02-10T20:27:20.147Z,98.00
2019-02-10T20:30:08.541Z,98.90
2019-02-10T20:32:55.719Z,97.80
2019-02-10T20:35:34.185Z,98.60
2019-02-10T20:38:14.707Z,98.80
2019-02-10T20:40:56.122Z,98.60
2019-02-10T20:43:30.423Z,98.80
2019-02-10T20:46:24.875Z,98.50
2019-02-10T20:49:13.289Z,98.10
2019-02-10T20:52:00.560Z,98.20
2019-02-10T20:54:44.588Z,98.10
2019-02-10T20:57:24.466Z,97.60
2019-02-10T21:00:08.128Z,96.30
2019-02-10T21:02:53.386Z,97.50
2019-02-10T21:05:36.525Z,95.70
2019-02-10T21:08:24.661Z,96.50
2019-02-10T21:11:03.537Z,96.90
2019-02-10T21:14:07.305Z,96.40
2019-02-10T21:16:57.536Z,97.00
2019-02-10T21:19:36.744Z,97.70
2019-02-10T21:22:16.377Z,97.80
2019-02-10T21:25:10.631Z,97.70
2019-02-10T21:27:50.792Z,97.40
2019-02-10T21:30:38.162Z,98.10
2019-02-10T21:33:25.244Z,96.80
2019-02-10T21:36:02.839Z,97.70
2019-02-10T21:38:51.257Z,98.40
2019-02-10T21:41:38.906Z,98.40
2019-02-10T21:44:33.137Z,97.50
2019-02-10T21:47:09.385Z,95.60
2019-02-10T21:49:38.874Z,97.90
2019-02-10T21:52:08.519Z,97.70
2019-02-10T21:54:37.949Z,98.40
2019-02-10T21:57:07.461Z,97.50
2019-02-10T21:59:36.915Z,98.40
2019-02-10T22:02:06.373Z,97.90
2019-02-10T22:04:35.799Z,96.80
2019-02-10T22:07:05.290Z,98.00
2019-02-10T22:09:34.866Z,97.80
2019-02-10T22:12:04.354Z,98.80
2019-02-10T22:14:33.802Z,98.30
2019-02-10T22:17:03.257Z,98.60
2019-02-10T22:19:32.718Z,97.80
2019-02-10T22:22:02.172Z,98.50
2019-02-10T22:24:31.642Z,97.40
2019-02-10T22:27:01.133Z,98.00
2019-02-10T22:29:30.570Z,96.00
2019-02-10T22:32:00.224Z,97.00
2019-02-10T22:34:29.651Z,96.70
2019-02-10T22:36:59.277Z,97.00
2019-02-10T22:39:28.728Z,95.70
2019-02-10T22:41:58.168Z,96.20
2019-02-10T22:44:27.681Z,96.90
2019-02-10T22:46:57.166Z,96.00
2019-02-10T22:49:26.637Z,96.50
2019-02-10T22:51:57.604Z,96.30
2019-02-10T22:54:27.021Z,97.00
2019-02-10T22:56:56.510Z,96.50
2019-02-10T22:59:25.958Z,96.00
2019-02-10T23:01:55.405Z,96.30
2019-02-10T23:04:25.074Z,96.80
2019-02-10T23:06:54.515Z,97.30
2019-02-10T23:09:24.879Z,95.50
2019-02-10T23:11:54.328Z,95.70
2019-02-10T23:14:23.779Z,95.90
2019-02-10T23:16:53.237Z,96.70
2019-02-10T23:19:22.696Z,96.30
2019-02-10T23:21:52.125Z,96.40
2019-02-10T23:24:21.577Z,96.60
2019-02-10T23:26:51.042Z,96.70
2019-02-10T23:29:20.496Z,96.10
2019-02-10T23:31:49.954Z,96.40
2019-02-10T23:34:19.406Z,97.10
2019-02-10T23:36:49.009Z,96.80
2019-02-10T23:39:18.462Z,97.00
2019-02-10T23:41:47.966Z,96.60
2019-02-10T23:44:17.440Z,96.60
2019-02-10T23:46:46.925Z,97.00
2019-02-10T23:49:16.405Z,96.70
2019-02-10T23:51:45.943Z,97.30
2019-02-10T23:54:15.439Z,96.90
2019-02-10T23:56:47.193Z,97.10
2019-02-10T23:59:16.030Z,97.30
